DatumSoutěžní akceSoutěž#Body
04.10.2020O kutnohorský grošMládež-C-STT 2 / 513220 F4
04.10.2020O kutnohorský grošDospělí-C-LAT 4 / 86136 F3
04.10.2020O kutnohorský grošMládež-C-LAT 7 / 125130 F3
04.10.2020O kutnohorský grošDospělí-C-STT 1 / 723 F207 F4
03.10.2020Jilemnický taneční pohárMládež-C-LAT 9 / 136125 F3
03.10.2020Jilemnický taneční pohárDospělí-C-LAT 8 / 126119 F3
03.10.2020Jilemnický taneční pohárMládež-C-STT 5 / 85184 F3
03.10.2020Jilemnický taneční pohárDospělí-C-STT 5 / 74179 F3
26.09.2020Velká cena MZ Dance Team - Pos…Mládež-C-LAT 3 / 1420 F113 F3
26.09.2020Velká cena MZ Dance Team - Pos…Mládež-C-STT 2 / 919 F175 F3
13.06.2020SOUTĚŽNÍ RESTART, aneb tanec n…Mládež-C-LAT 7 / 7093 F2
13.06.2020SOUTĚŽNÍ RESTART, aneb tanec n…Dospělí-C-LAT 9 / 10193 F2
13.06.2020SOUTĚŽNÍ RESTART, aneb tanec n…Dospělí-C-STT 7 / 114156 F2
13.06.2020SOUTĚŽNÍ RESTART, aneb tanec n…Mládež-C-STT 3 / 610152 F2
23.02.2020Říčanský pohár 2020 - 43.roční…Dospělí-C-LAT 14 – 15 / 21692 F2
23.02.2020Říčanský pohár 2020 - 43.roční…Mládež-C-LAT 4 / 1616 F86 F2
23.02.2020Říčanský pohár 2020 - 43.roční…Dospělí-C-STT 12 – 14 / 140142 F2
23.02.2020Říčanský pohár 2020 - 43.roční…Mládež-C-STT 4 / 97142 F2
12.01.2020DanceTime Gala Cup 2020Mládež-C-LAT 3 / 5770 F
12.01.2020DanceTime Gala Cup 2020Dospělí-C-LAT 9 / 9063 F
15.12.2019Vánoční pohár TK AMICIA DANCE …Mládež-C-STT 5 – 6 / 82135 F2
15.12.2019Vánoční pohár TK AMICIA DANCE …Mládež-C-LAT 3 / 101463 F
14.12.2019Vánoční cena TK LinieDospělí-C-LAT 7 / 7049 F
14.12.2019Vánoční cena TK LinieMládež-C-LAT 4 / 5149 F
14.12.2019Vánoční cena TK LinieDospělí-C-STT 7 / 81133 F2
14.12.2019Vánoční cena TK LinieMládež-C-STT 3 / 46132 F2
07.12.2019Velká cena MZ Dance Team - Mem…Mládež-C-STT 2 / 311126 F2
07.12.2019Velká cena MZ Dance Team - Mem…Mládež-C-LAT 1 / 418 F48 F
01.12.2019Zimní SPARTA CUP 2019Dospělí-C-LAT 5 / 6130
01.12.2019Zimní SPARTA CUP 2019Dospělí-C-STT 9 / 101115 F2
01.12.2019Zimní SPARTA CUP 2019Mládež-C-LAT 4 / 11929
01.12.2019Zimní SPARTA CUP 2019Mládež-C-STT 6 – 7 / 81114 F2
24.11.2019Podzimní pohár ASTRA Praha 201…Dospělí-C-LAT 6 / 7120
24.11.2019Podzimní pohár ASTRA Praha 201…Mládež-C-LAT 6 / 7119
24.11.2019Podzimní pohár ASTRA Praha 201…Dospělí-C-STT 9 – 10 / 100113 F2
24.11.2019Podzimní pohár ASTRA Praha 201…Mládež-C-STT 3 / 711113 F2
23.11.2019Vánoční cena 12.ročník Přebor …Mládež-C-STT 6 / 82102 F2
23.11.2019Vánoční cena 12.ročník Přebor …Mládež-C-LAT 4 / 6418
16.11.2019O cenu města JičínaMládež-C-LAT 5 / 5014
16.11.2019O cenu města JičínaDospělí-C-LAT 4 / 7514
16.11.2019O cenu města JičínaMládež-C-STT 4 / 64100 F2
16.11.2019O cenu města JičínaDospělí-C-STT 11 – 12 / 12096 F2
09.11.2019Podzimní pohár města KladnaDospělí-C-STT 9 / 12396 F2
09.11.2019Podzimní pohár města KladnaMládež-C-STT 3 / 81293 F2
09.11.2019Podzimní pohár města KladnaDospělí-C-LAT 21 / 2219
09.11.2019Podzimní pohár města KladnaMládež-C-LAT 15 / 2168
02.11.2019Velká cena města Berouna 2019 …Dospělí-C-LAT 10 / 1002
02.11.2019Velká cena města Berouna 2019 …Dospělí-C-STT 14 / 19581 F2
02.11.2019Velká cena města Berouna 2019 …Mládež-C-STT 6 / 12876 F2
02.11.2019Velká cena města Berouna 2019 …Mládež-C-LAT 11 – 12 / 1422
12.10.2019Cena města BenešovaMládež-C-STT 9 / 12368 F2
12.10.2019Cena města BenešovaMládež-D-LAT 4 / 1818 F267 F5 C
29.09.2019Poprázdninová cena KTS PříbramMládež-D-LAT 2 / 1020 F249 F4
29.09.2019Poprázdninová cena KTS PříbramMládež-C-STT 4 / 7565 F2
28.09.2019Velká cena MZ Dance Team a KD …Mládež-D-LAT 3 / 1115 F229 F3
28.09.2019Velká cena MZ Dance Team a KD …Mládež-C-STT 4 / 6460 F2
08.09.2019Ghepardo OpenDospělí-D-LAT 8 / 159214 F2
08.09.2019Ghepardo OpenMládež-D-LAT 4 / 86205 F2
02.06.2019Letní pohár města KladnaDospělí-D-LAT 5 / 83199 F2
02.06.2019Letní pohár města KladnaDospělí-C-STT 6 / 8256 F2
02.06.2019Letní pohár města KladnaMládež-C-STT 8 / 12454 F2
02.06.2019Letní pohár města KladnaMládež-D-LAT 5 / 107196 F2
25.05.2019Cena města VlašimiMládež-C-STT 4 / 6450 F2
25.05.2019Cena města VlašimiMládež-D-LAT 4 / 1210189 F2
04.05.2019O kutnohorský grošDospělí-D-LAT 3 / 913179 F2
04.05.2019O kutnohorský grošMládež-D-LAT 5 / 96166 F2
04.05.2019O kutnohorský grošDospělí-C-STT 10 / 10046 F2
04.05.2019O kutnohorský grošMládež-C-STT 8 / 10246 F2
28.04.2019SPARTA CUP 2019 - 5. ročníkDospělí-D-LAT 6 / 128160 F2
28.04.2019SPARTA CUP 2019 - 5. ročníkDospělí-C-STT 8 / 12444 F2
28.04.2019SPARTA CUP 2019 - 5. ročníkMládež-D-LAT 2 / 919 F152 F2
28.04.2019SPARTA CUP 2019 - 5. ročníkMládež-C-STT 3 / 1216 F40 F2
10.03.2019Jarní Pohár Astra Praha 2019 -…Dospělí-D-LAT 9 / 101133 F
10.03.2019Jarní Pohár Astra Praha 2019 -…Dospělí-C-STT 13 / 14124 F
03.02.2019Mistrovství České republiky dr…Do 21-STT-3.páry 4 / 1000
19.01.2019CENA HANKOVA DOMU 5. ročníkDospělí-C-STT 11 – 12 / 12023 F
19.01.2019CENA HANKOVA DOMU 5. ročníkMládež-D-LAT 5 / 83132 F
19.01.2019CENA HANKOVA DOMU 5. ročníkMládež-C-STT 9 / 10123 F
16.12.2018Velká cena MZ Dance Team - Mem…Jun-II-D-LAT 2 / 513129 F
16.12.2018Velká cena MZ Dance Team - Mem…Jun-II-C-STT 1 / 418 F22 F
15.12.2018Vánoční pohár TK AMICIA DANCE …Jun-II-D-LAT 4 / 97116 F
15.12.2018Vánoční pohár TK AMICIA DANCE …Jun-II-C-STT 7 / 814
09.12.2018Zimní SPARTA CUP 2018Jun-II-C-STT 10 / 1333
09.12.2018Zimní SPARTA CUP 2018Jun-II-D-LAT 2 / 1325 F109 F
08.12.2018Kamenický pohárJun-II-D-LAT 3 / 81284
08.12.2018Kamenický pohárJun-II-C-STT 8 / 800
01.12.2018Jesenický pohár 2018 - 12. roč…Jun-II-D-LAT 6 / 11772
01.12.2018Jesenický pohár 2018 - 12. roč…Jun-II-D-STT 2 / 818 F203 F6 C
24.11.2018Podzimní pohár ASTRA Praha 201…Jun-II-D-LAT 7 / 11465
24.11.2018Podzimní pohár ASTRA Praha 201…Jun-II-D-STT 3 / 1115 F185 F5
17.11.2018Vltavský pohár Prahy 7Jun-II-D-LAT 5 / 11861
17.11.2018Vltavský pohár Prahy 7Jun-II-D-STT 5 / 1312170 F4
10.11.2018Pohár Královského města Slaný …Jun-II-D-STT 1 / 723 F158 F4
10.11.2018Pohár Královského města Slaný …Jun-II-D-LAT 3 / 91353
03.11.2018Velká cena města Berouna 2018 …Jun-II-D-LAT 7 / 12540
03.11.2018Velká cena města Berouna 2018 …Jun-II-D-STT 5 / 129135 F3
28.10.2018Podzimní cena KST Silueta Prah…Jun-II-D-LAT 8 / 13745
28.10.2018Podzimní cena KST Silueta Prah…Jun-II-D-STT 1 / 824 F136 F3
21.10.2018O zbraslavskou loutku (Přebor …Jun-II-D-LAT 6 / 10438
21.10.2018O zbraslavskou loutku (Přebor …Jun-II-D-STT 3 / 913112 F2
20.10.2018Cena Společenského centra Týne…Jun-II-D-LAT 5 – 6 / 13934
20.10.2018Cena Společenského centra Týne…Jun-II-D-STT 3 / 1319 F99 F2
30.09.2018Fuego CupJun-II-D-LAT 9 / 171025
30.09.2018Fuego CupJun-II-D-STT 5 / 131280 F
09.09.2018Chvaletický pohárJun-II-D-LAT 11 / 12115
09.09.2018Chvaletický pohárJun-II-D-STT 6 / 8268 F
08.09.2018Ghepardo OpenJun-II-D-LAT 14 / 15114
08.09.2018Ghepardo OpenJun-II-D-STT 8 / 161066 F
09.06.2018Cena PosázavíJun-II-D-LAT 9 – 10 / 14413
09.06.2018Cena PosázavíJun-II-D-STT 4 / 7556 F
02.06.2018Cena města PříbramiJun-II-D-LAT 5 / 729
02.06.2018Cena města PříbramiJun-II-D-STT 4 / 6451 F
26.05.2018Cena města VlašimiJun-II-D-LAT 5 / 1077
26.05.2018Cena města VlašimiJun-II-D-STT 2 / 41247 F
20.05.2018Cena TK LinieJun-II-E-LAT 4 / 141414
20.05.2018Cena TK LinieJun-II-D-STT 6 / 12835 F
08.05.2018O Hořickou trubičkuJun-II-E-LAT 3 / 91313
08.05.2018O Hořickou trubičkuJun-II-D-STT 2 / 616 F27 F
05.05.2018SPARTA CUP 2018Jun-II-E-LAT 4 / 161616
05.05.2018SPARTA CUP 2018Jun-II-D-STT 6 / 10411
15.04.2018Táborský pecen 18. ročníkJun-II-E-LAT 5 / 1188
15.04.2018Táborský pecen 18. ročníkJun-II-D-STT 5 / 507
14.04.2018Jihlavský pohár 11.ročník (20l…Jun-II-E-LAT 7 – 9 / 1366
14.04.2018Jihlavský pohár 11.ročník (20l…Jun-II-D-STT 3 / 577
18.03.2018Jarní cena NKC Nové StrašecíJun-II-E-LAT 6 / 933
18.03.2018Jarní cena NKC Nové StrašecíJun-II-E-STT 3 / 61010
17.03.2018Jarní cena TK TJ Sokol Lysá na…Jun-II-E-LAT 8 – 10 / 211313
17.03.2018Jarní cena TK TJ Sokol Lysá na…Jun-II-E-STT 4 / 191919
10.03.2018Uhlířskojanovická parketa 2018…Jun-II-E-LAT 8 – 9 / 181111
10.03.2018Uhlířskojanovická parketa 2018…Jun-II-E-STT 2 / 132525
14.01.2018Zimní taneční pohár 2018Jun-II-E-LAT 6 / 151111
14.01.2018Zimní taneční pohár 2018Jun-II-E-STT 7 / 1499
13.01.2018DanceTime Gala Cup 2018Jun-II-E-LAT 4 / 755
13.01.2018DanceTime Gala Cup 2018Jun-II-E-STT 6 / 711
16.12.2017COOL DANCE - Vánoční cena měst…Jun-II-E-LAT 5 / 722
16.12.2017COOL DANCE - Vánoční cena měst…Jun-II-E-STT 3 / 61010
03.12.2017Zimní SPARTA CUP 2017Jun-II-E-LAT 4 / 1199
03.12.2017Zimní SPARTA CUP 2017Jun-II-E-STT 3 / 91313
02.12.2017Jesenický pohár 2017Jun-II-E-LAT 4 / 1088
02.12.2017Jesenický pohár 2017Jun-II-E-STT 4 / 1088
25.11.2017Podzimní pohár ASTRA Praha 201…Jun-II-E-LAT 2 / 142626
25.11.2017Podzimní pohár ASTRA Praha 201…Jun-II-E-STT 10 / 1577
19.11.2017Podzimní cena KST Silueta Prah…Jun-II-E-LAT 6 / 1288
19.11.2017Podzimní cena KST Silueta Prah…Jun-II-E-STT 7 / 1166
05.11.2017Podzimní pohár města KladnaJun-II-E-LAT 5 / 833
05.11.2017Podzimní pohár města KladnaJun-II-E-STT 5 / 1077
22.10.2017O zbraslavskou loutku (Přebor …Jun-II-E-LAT 6 / 933
22.10.2017O zbraslavskou loutku (Přebor …Jun-II-E-STT 7 / 1033
25.06.2017Letní cena KST Silueta Praha, …Jun-II-E-LAT 12 – 14 / 1733
25.06.2017Letní cena KST Silueta Praha, …Jun-II-E-STT 3 / 121616
21.05.2017Maestro Cup For AllTPV-Jun-II-LAT 4 / 900
21.05.2017Maestro Cup For AllJun-II-E-LAT 6 / 1177
21.05.2017Maestro Cup For AllTPV-Jun-II-STT 1 / 300
21.05.2017Maestro Cup For AllJun-II-E-STT 2 / 81818
06.05.2017SPARTA CUP 2017Jun-II-E-LAT 4 / 161616
06.05.2017SPARTA CUP 2017Jun-II-E-STT 3 / 131919
29.04.2017Marendi 2017-O POHÁR HEJTMANKY…Jun-II-E-LAT 7 – 8 / 1133
29.04.2017Marendi 2017-O POHÁR HEJTMANKY…Jun-II-E-STT 3 / 81212
02.04.2017Táborský pecen 17. ročníkJun-II-E-LAT 3 / 91313
02.04.2017Táborský pecen 17. ročníkJun-II-E-STT 3 / 81212
10.12.2016Zimní cena KST Silueta Praha, …Jun-II-E-KOMB. 3 / 300
10.12.2016Zimní cena KST Silueta Praha, …Jun-I-E-KOMB. 6 / 600
04.12.2016Zimní SPARTA CUP 2016Jun-II-E-LAT 9 / 1100
04.12.2016Zimní SPARTA CUP 2016Jun-I-E-LAT 14 / 1600
04.12.2016Zimní SPARTA CUP 2016Jun-II-E-STT 7 / 800
04.12.2016Zimní SPARTA CUP 2016Jun-I-E-STT 9 – 10 / 1200
17.09.2016Velká cena MZ Dance Team - Mem…Jun-I-E-KOMB. 5 / 500
05.06.2016SPARTA CUP 2016Jun-II-E-KOMB. 4 / 600
05.06.2016SPARTA CUP 2016Jun-I-E-KOMB. 8 / 1300
— dancerank.cz